FW5431 Weather Reports


Display with metric or nautical units.
time (UTC)temp
F
wind
direction
speed
MPH
gust
MPH
rain 1hr
in
rain 24hr
in
rain mn
in
humidity
%
barometer
mb
20221204174508 83 63 4.0 7.0 0.00 0.04 0.01 81 1005.8
20221204173002 83 136 2.0 6.0 0.00 0.04 0.01 80 1005.8
20221204171502 82 83 4.0 8.0 0.00 0.04 0.01 83 1006.0
20221204170010 81 128 4.0 10.0 0.00 0.04 0.01 85 1006.5
20221204164502 80 74 3.0 6.0 0.00 0.04 0.01 86 1006.7
20221204163002 80 41 3.0 8.0 0.00 0.04 0.01 85 1007.0
20221204161502 81 10 3.0 6.0 0.00 0.04 0.01 85 1007.2
20221204160005 81 89 3.0 9.0 0.00 0.04 0.01 85 1007.5
20221204154501 81 39 4.0 8.0 0.00 0.04 0.01 84 1007.6
20221204153001 81 51 6.0 10.0 0.00 0.04 0.01 83 1007.9
20221204151509 83 72 2.0 8.0 0.00 0.04 0.01 80 1008.0
20221204150005 82 86 3.0 9.0 0.00 0.04 0.01 80 1008.2
20221204144503 82 91 3.0 9.0 0.00 0.04 0.01 81 1008.2
20221204143004 82 84 3.0 7.0 0.00 0.04 0.01 80 1008.4
20221204141503 83 42 4.0 7.0 0.00 0.04 0.01 79 1008.4
20221204140004 82 87 3.0 6.0 0.00 0.04 0.01 81 1008.6
20221204134501 82 156 2.0 5.0 0.00 0.04 0.01 81 1008.6
20221204133001 82 19 1.0 4.0 0.00 0.04 0.01 83 1008.8
20221204131501 81 126 2.0 6.0 0.00 0.04 0.01 83 1008.8
20221204130008 81 35 1.0 4.0 0.00 0.04 0.01 84 1008.9
20221204124501 81 295 1.0 4.0 0.00 0.04 0.01 85 1008.9
20221204123003 80 352 1.0 5.0 0.00 0.04 0.01 86 1009.0
20221204121503 80 39 1.0 4.0 0.00 0.04 0.01 87 1008.9
20221204120004 79 69 2.0 4.0 0.00 0.04 0.01 89 1009.0
20221204114501 78 225 0.0 0.0 0.00 0.04 0.01 90 1008.9
20221204113002 78 226 0.0 0.0 0.00 0.04 0.01 91 1009.0
20221204111501 77 226 0.0 0.0 0.00 0.04 0.01 93 1009.1
20221204110004 76 226 0.0 0.0 0.00 0.04 0.01 94 1009.0
20221204104502 76 4 0.0 0.0 0.00 0.04 0.01 95 1009.0
20221204103002 75 4 0.0 0.0 0.00 0.04 0.01 96 1008.9
20221204101502 74 4 0.0 0.0 0.00 0.04 0.01 96 1008.8
20221204100004 74 4 0.0 0.0 0.00 0.04 0.01 97 1008.6
20221204094502 74 4 0.0 0.0 0.00 0.04 0.01 97 1008.5
20221204093002 74 4 0.0 0.0 0.00 0.04 0.01 97 1008.2
20221204091505 73 4 0.0 0.0 0.00 0.04 0.01 97 1008.3
20221204090007 73 4 0.0 0.0 0.00 0.04 0.01 97 1008.2
20221204084501 73 4 0.0 0.0 0.00 0.04 0.01 97 1008.2
20221204083001 73 4 0.0 0.0 0.00 0.04 0.01 97 1007.8
20221204081502 74 4 0.0 0.0 0.00 0.04 0.01 97 1007.7
20221204080004 74 4 0.0 0.0 0.00 0.04 0.01 97 1007.6
20221204074600 74 4 0.0 0.0 0.00 0.04 0.01 97 1007.5
20221204073110 73 4 0.0 0.0 0.00 0.04 0.01 97 1007.4
20221204071606 73 4 0.0 0.0 0.00 0.04 0.01 97 1007.4
20221204071502 74 4 0.0 0.0 0.00 0.04 0.01 97 1007.4
20221204070133 74 4 0.0 0.0 0.00 0.04 0.01 97 1007.3
20221204070006 74 4 0.0 0.0 0.00 0.04 0.01 97 1007.3
20221204064501 74 4 0.0 0.0 0.00 0.04 0.01 97 1007.3
20221204063001 74 4 0.0 0.0 0.00 0.04 0.01 97 1007.3
20221204061502 74 4 0.0 0.0 0.00 0.04 0.01 97 1007.5
20221204060100 74 4 0.0 0.0 0.00 0.04 0.01 97 1007.5
20221204060004 74 4 0.0 0.0 0.00 0.04 0.01 97 1007.5
20221204054632 74 4 0.0 0.0 0.00 0.04 0.01 97 1007.7
20221204053106 74 4 0.0 0.0 0.00 0.04 0.01 97 1007.6
20221204051600 74 4 0.0 0.0 0.00 0.04 0.01 97 1007.9
20221204050101 74 4 0.0 0.0 0.00 0.04 0.01 97 1008.0
20221204050003 74 4 0.0 0.0 0.00 0.04 0.01 97 1008.0
20221204044605 74 4 0.0 0.0 0.00 0.04 0.01 97 1008.0
20221204043100 74 4 0.0 0.0 0.00 0.04 0.01 97 1008.2
20221204041603 74 16 0.0 0.0 0.01 0.04 0.01 96 1008.3
20221204040101 74 16 0.0 0.0 0.01 0.04 0.01 96 1008.5
20221204040004 74 16 0.0 0.0 0.01 0.04 0.01 96 1008.5
20221204034501 74 16 0.0 0.0 0.01 0.04 0.01 96 1009.0
20221204033001 74 16 0.0 0.0 0.01 0.04 0.01 96 1009.3
20221204031501 74 16 0.0 0.0 0.00 0.03 0.00 96 1009.4
20221204030009 74 16 0.0 0.0 0.00 0.03 0.00 96 1009.5
20221204024502 74 16 0.0 0.0 0.01 0.03 0.03 96 1009.7
20221204023001 74 16 0.0 0.0 0.01 0.03 0.03 96 1009.8
20221204021502 74 16 0.0 0.0 0.01 0.03 0.03 95 1009.6
20221204020004 74 16 0.0 0.0 0.01 0.03 0.03 95 1009.7
20221204014502 75 16 0.0 0.0 0.02 0.03 0.02 94 1009.8
20221204013003 75 16 0.0 0.0 0.02 0.03 0.02 94 1009.7
20221204011501 75 16 0.0 0.0 0.02 0.03 0.02 93 1009.6
20221204010004 76 16 0.0 2.0 0.02 0.03 0.02 91 1009.6
20221204004501 77 16 0.0 3.0 0.00 0.01 0.00 89 1009.7
20221204003001 77 16 0.0 2.0 0.00 0.01 0.00 87 1009.5
20221204001501 77 16 0.0 3.0 0.00 0.01 0.00 88 1009.3
20221204000006 77 1 0.0 1.0 0.00 0.01 0.00 88 1009.2
20221203234502 77 1 0.0 2.0 0.00 0.01 0.00 88 1009.0
20221203233001 77 1 0.0 0.0 0.00 0.01 0.00 88 1009.1
20221203231501 77 1 0.0 1.0 0.00 0.01 0.00 87 1009.0
20221203230004 78 1 0.0 2.0 0.00 0.01 0.00 87 1008.8
20221203224501 78 1 0.0 2.0 0.00 0.01 0.00 86 1008.6
20221203223001 78 1 0.0 3.0 0.00 0.01 0.00 86 1008.6
20221203221501 78 111 0.0 3.0 0.00 0.01 0.00 86 1008.4
20221203220005 79 107 2.0 4.0 0.00 0.01 0.00 86 1008.0
20221203214501 79 51 0.0 4.0 0.00 0.01 0.00 86 1008.0
20221203213002 79 119 2.0 6.0 0.00 0.01 0.00 86 1007.9
20221203211501 79 91 3.0 6.0 0.00 0.01 0.00 86 1007.7
20221203210006 79 80 1.0 6.0 0.00 0.01 0.00 86 1007.7
20221203204500 80 28 2.0 8.0 0.00 0.01 0.00 86 1007.7
20221203203001 80 71 2.0 8.0 0.00 0.01 0.00 85 1007.7
20221203201501 80 20 3.0 10.0 0.00 0.01 0.00 85 1007.4
20221203200012 81 3 2.0 8.0 0.00 0.01 0.00 84 1007.3
20221203194501 81 58 3.0 13.0 0.00 0.01 0.00 83 1007.3
20221203193001 82 101 4.0 10.0 0.00 0.01 0.00 83 1007.2
20221203191502 83 64 5.0 10.0 0.00 0.01 0.00 81 1007.2
20221203190005 83 94 4.0 9.0 0.00 0.01 0.00 81 1007.1
20221203184501 83 94 3.0 6.0 0.00 0.01 0.00 81 1007.1
20221203183002 83 65 5.0 9.0 0.00 0.01 0.00 79 1007.4
20221203181501 84 98 2.0 8.0 0.00 0.01 0.00 79 1007.2
20221203180005 84 98 2.0 8.0 0.00 0.01 0.00 79 1007.4